createdAt,value
2022-11-16T00:00:05.937Z,9.28
2022-11-16T00:00:18.121Z,9.28
2022-11-16T00:00:29.849Z,9.30
2022-11-16T00:00:42.540Z,9.28
2022-11-16T00:00:53.298Z,9.30
2022-11-16T00:01:05.751Z,9.28
2022-11-16T00:01:17.440Z,9.28
2022-11-16T00:01:29.631Z,9.30
2022-11-16T00:01:40.415Z,9.30
2022-11-16T00:01:51.247Z,9.30
2022-11-16T00:02:02.038Z,9.30
2022-11-16T00:02:14.547Z,9.30
2022-11-16T00:02:26.276Z,9.28
2022-11-16T00:02:37.080Z,9.30
2022-11-16T00:02:48.829Z,9.30
2022-11-16T00:03:00.589Z,9.28
2022-11-16T00:03:11.349Z,9.30
2022-11-16T00:03:23.117Z,9.30
2022-11-16T00:03:33.871Z,9.28
2022-11-16T00:03:46.600Z,9.28
2022-11-16T00:03:57.370Z,9.28
2022-11-16T00:04:08.119Z,9.28
2022-11-16T00:04:18.878Z,9.30
2022-11-16T00:04:29.622Z,9.27
2022-11-16T00:04:40.381Z,9.28
2022-11-16T00:04:52.131Z,9.27
2022-11-16T00:05:04.359Z,9.27
2022-11-16T00:05:15.131Z,9.27
2022-11-16T00:05:28.510Z,9.28
2022-11-16T00:05:40.360Z,9.28
2022-11-16T00:05:51.100Z,9.27
2022-11-16T00:06:01.860Z,9.27
2022-11-16T00:06:12.661Z,9.27
2022-11-16T00:06:24.362Z,9.25
2022-11-16T00:06:35.103Z,9.25
2022-11-16T00:06:45.864Z,9.25
2022-11-16T00:06:56.667Z,9.25
2022-11-16T00:07:08.933Z,9.27
2022-11-16T00:07:21.427Z,9.24
2022-11-16T00:07:34.175Z,9.27
2022-11-16T00:07:44.931Z,9.25
2022-11-16T00:07:56.624Z,9.25
2022-11-16T00:08:09.072Z,9.24
2022-11-16T00:08:20.801Z,9.25
2022-11-16T00:08:31.860Z,9.25
2022-11-16T00:08:42.862Z,9.27
2022-11-16T00:08:53.630Z,9.27
2022-11-16T00:09:04.391Z,9.25
2022-11-16T00:09:15.192Z,9.25
2022-11-16T00:09:26.003Z,9.25
2022-11-16T00:09:38.011Z,9.25
2022-11-16T00:09:48.784Z,9.25
2022-11-16T00:10:00.663Z,9.24
2022-11-16T00:10:13.102Z,9.25
2022-11-16T00:10:23.860Z,9.25
2022-11-16T00:10:34.662Z,9.24
2022-11-16T00:10:46.382Z,9.25
2022-11-16T00:10:57.158Z,9.25
2022-11-16T00:11:07.902Z,9.25
2022-11-16T00:11:18.660Z,9.23
2022-11-16T00:11:29.413Z,9.24
2022-11-16T00:11:40.172Z,9.24
2022-11-16T00:11:52.623Z,9.24
2022-11-16T00:12:04.402Z,9.24
2022-11-16T00:12:16.882Z,9.24
2022-11-16T00:12:29.131Z,9.23
2022-11-16T00:12:40.853Z,9.23
2022-11-16T00:12:51.603Z,9.24
2022-11-16T00:13:03.322Z,9.23
2022-11-16T00:13:14.072Z,9.23
2022-11-16T00:13:26.544Z,9.23
2022-11-16T00:13:37.352Z,9.23
2022-11-16T00:13:48.243Z,9.21
2022-11-16T00:13:59.971Z,9.21
2022-11-16T00:14:12.402Z,9.21
2022-11-16T00:14:24.154Z,9.21
2022-11-16T00:14:34.914Z,9.21
2022-11-16T00:14:45.653Z,9.21
2022-11-16T00:14:57.371Z,9.21
2022-11-16T00:15:09.116Z,9.21
2022-11-16T00:15:20.853Z,9.21
2022-11-16T00:15:31.622Z,9.20
2022-11-16T00:15:42.364Z,9.20
2022-11-16T00:15:54.084Z,9.21
2022-11-16T00:16:05.795Z,9.20
2022-11-16T00:16:16.533Z,9.21
2022-11-16T00:16:28.233Z,9.21
2022-11-16T00:16:40.653Z,9.21
2022-11-16T00:16:51.413Z,9.20
2022-11-16T00:17:03.138Z,9.21
2022-11-16T00:17:15.604Z,9.20
2022-11-16T00:17:27.284Z,9.21
2022-11-16T00:17:38.023Z,9.21
2022-11-16T00:17:49.734Z,9.20
2022-11-16T00:18:00.495Z,9.20
2022-11-16T00:18:11.237Z,9.20
2022-11-16T00:18:22.025Z,9.21
2022-11-16T00:18:34.058Z,9.20
2022-11-16T00:18:45.301Z,9.20
2022-11-16T00:18:57.488Z,9.20
2022-11-16T00:19:08.235Z,9.18
2022-11-16T00:19:19.056Z,9.20
2022-11-16T00:19:31.774Z,9.20
2022-11-16T00:19:42.589Z,9.18
2022-11-16T00:19:53.312Z,9.20
2022-11-16T00:20:05.050Z,9.20
2022-11-16T00:20:17.496Z,9.18
2022-11-16T00:20:28.274Z,9.20
2022-11-16T00:20:40.135Z,9.20
2022-11-16T00:20:51.886Z,9.20
2022-11-16T00:21:06.257Z,9.18
2022-11-16T00:21:18.015Z,9.20
2022-11-16T00:21:28.765Z,9.18
2022-11-16T00:21:39.524Z,9.18
2022-11-16T00:21:50.285Z,9.18
2022-11-16T00:22:02.734Z,9.18
2022-11-16T00:22:15.398Z,9.20
2022-11-16T00:22:27.689Z,9.18
2022-11-16T00:22:39.455Z,9.18
2022-11-16T00:22:51.896Z,9.18
2022-11-16T00:23:03.615Z,9.20
2022-11-16T00:23:14.405Z,9.18
2022-11-16T00:23:25.204Z,9.18
2022-11-16T00:23:35.963Z,9.18
2022-11-16T00:23:48.185Z,9.18
2022-11-16T00:23:58.925Z,9.18
2022-11-16T00:24:10.665Z,9.20
2022-11-16T00:24:21.406Z,9.18
2022-11-16T00:24:34.606Z,9.18
2022-11-16T00:24:45.355Z,9.20
2022-11-16T00:24:56.169Z,9.18
2022-11-16T00:25:06.927Z,9.20
2022-11-16T00:25:17.657Z,9.18
2022-11-16T00:25:30.859Z,9.20
2022-11-16T00:25:43.584Z,9.20
2022-11-16T00:25:54.356Z,9.18
2022-11-16T00:26:06.078Z,9.20
2022-11-16T00:26:17.776Z,9.20
2022-11-16T00:26:28.576Z,9.20
2022-11-16T00:26:40.323Z,9.21
2022-11-16T00:26:51.096Z,9.20
2022-11-16T00:27:01.845Z,9.18
2022-11-16T00:27:12.639Z,9.20
2022-11-16T00:27:25.326Z,9.20
2022-11-16T00:27:37.047Z,9.20
2022-11-16T00:27:50.257Z,9.20
2022-11-16T00:28:01.046Z,9.20
2022-11-16T00:28:13.277Z,9.20
2022-11-16T00:28:24.996Z,9.21
2022-11-16T00:28:37.425Z,9.20
2022-11-16T00:28:48.198Z,9.20
2022-11-16T00:28:58.936Z,9.20
2022-11-16T00:29:11.138Z,9.18
2022-11-16T00:29:23.084Z,9.20
2022-11-16T00:29:35.537Z,9.20
2022-11-16T00:29:47.287Z,9.18
2022-11-16T00:29:58.075Z,9.18
2022-11-16T00:30:08.831Z,9.20
2022-11-16T00:30:19.574Z,9.18
2022-11-16T00:30:30.357Z,9.20
2022-11-16T00:30:42.066Z,9.20
2022-11-16T00:30:52.877Z,9.20
2022-11-16T00:31:04.605Z,9.20
2022-11-16T00:31:17.137Z,9.18
2022-11-16T00:31:29.586Z,9.18
2022-11-16T00:31:40.367Z,9.18
2022-11-16T00:31:51.139Z,9.18
2022-11-16T00:32:01.907Z,9.18
2022-11-16T00:32:13.655Z,9.20
2022-11-16T00:32:24.407Z,9.18
2022-11-16T00:32:36.159Z,9.20
2022-11-16T00:32:46.918Z,9.18
2022-11-16T00:32:57.657Z,9.18
2022-11-16T00:33:09.887Z,9.18
2022-11-16T00:33:22.356Z,9.18
2022-11-16T00:33:35.569Z,9.20
2022-11-16T00:33:46.327Z,9.18
2022-11-16T00:33:58.061Z,9.18
2022-11-16T00:34:08.807Z,9.18
2022-11-16T00:34:19.587Z,9.18
2022-11-16T00:34:32.021Z,9.18
2022-11-16T00:34:42.799Z,9.20
2022-11-16T00:34:53.548Z,9.18
2022-11-16T00:35:05.278Z,9.18
2022-11-16T00:35:16.998Z,9.18
2022-11-16T00:35:28.757Z,9.18
2022-11-16T00:35:39.548Z,9.18
2022-11-16T00:35:51.239Z,9.18
2022-11-16T00:36:03.702Z,9.16
2022-11-16T00:36:15.410Z,9.18
2022-11-16T00:36:26.178Z,9.16
2022-11-16T00:36:39.378Z,9.18
2022-11-16T00:36:50.138Z,9.16
2022-11-16T00:37:01.879Z,9.18
2022-11-16T00:37:13.617Z,9.18
2022-11-16T00:37:24.387Z,9.18
2022-11-16T00:37:36.850Z,9.18
2022-11-16T00:37:49.299Z,9.18
2022-11-16T00:38:00.038Z,9.18
2022-11-16T00:38:12.258Z,9.16
2022-11-16T00:38:23.967Z,9.18
2022-11-16T00:38:35.140Z,9.16
2022-11-16T00:38:47.038Z,9.16
2022-11-16T00:38:59.509Z,9.18
2022-11-16T00:39:11.211Z,9.18
2022-11-16T00:39:23.632Z,9.16
2022-11-16T00:39:34.391Z,9.18
2022-11-16T00:39:45.260Z,9.15
2022-11-16T00:39:57.074Z,9.16
2022-11-16T00:40:07.819Z,9.16
2022-11-16T00:40:18.568Z,9.15
2022-11-16T00:40:31.537Z,9.15
2022-11-16T00:40:44.461Z,9.15
2022-11-16T00:40:55.234Z,9.16
2022-11-16T00:41:06.019Z,9.16
2022-11-16T00:41:16.799Z,9.15
2022-11-16T00:41:27.579Z,9.15
2022-11-16T00:41:39.280Z,9.16
2022-11-16T00:41:51.130Z,9.16
2022-11-16T00:42:01.922Z,9.16
2022-11-16T00:42:14.359Z,9.16
2022-11-16T00:42:25.130Z,9.16
2022-11-16T00:42:37.550Z,9.15
2022-11-16T00:42:49.310Z,9.15
2022-11-16T00:43:01.794Z,9.16
2022-11-16T00:43:12.543Z,9.16
2022-11-16T00:43:24.280Z,9.16
2022-11-16T00:43:36.990Z,9.15
2022-11-16T00:43:49.322Z,9.15
2022-11-16T00:44:00.099Z,9.16
2022-11-16T00:44:13.550Z,9.16
2022-11-16T00:44:24.280Z,9.16
2022-11-16T00:44:36.031Z,9.16
2022-11-16T00:44:46.819Z,9.16
2022-11-16T00:44:58.540Z,9.16
2022-11-16T00:45:09.314Z,9.16
2022-11-16T00:45:21.042Z,9.15
2022-11-16T00:45:32.793Z,9.16
2022-11-16T00:45:43.600Z,9.16
2022-11-16T00:45:54.374Z,9.16
2022-11-16T00:46:06.339Z,9.16
2022-11-16T00:46:17.102Z,9.16
2022-11-16T00:46:27.901Z,9.16
2022-11-16T00:46:38.703Z,9.16
2022-11-16T00:46:50.410Z,9.16
2022-11-16T00:47:01.140Z,9.15
2022-11-16T00:47:11.880Z,9.16
2022-11-16T00:47:24.339Z,9.16
2022-11-16T00:47:36.031Z,9.18
2022-11-16T00:47:49.241Z,9.16
2022-11-16T00:48:00.764Z,9.16
2022-11-16T00:48:11.671Z,9.16
2022-11-16T00:48:22.419Z,9.16
2022-11-16T00:48:33.621Z,9.16
2022-11-16T00:48:45.522Z,9.16
2022-11-16T00:48:56.310Z,9.16
2022-11-16T00:49:08.001Z,9.16
2022-11-16T00:49:20.978Z,9.16
2022-11-16T00:49:31.780Z,9.16
2022-11-16T00:49:43.500Z,9.18
2022-11-16T00:49:55.732Z,9.18
2022-11-16T00:50:07.492Z,9.16
2022-11-16T00:50:19.222Z,9.16
2022-11-16T00:50:31.670Z,9.16
2022-11-16T00:50:43.402Z,9.16
2022-11-16T00:50:54.152Z,9.20
2022-11-16T00:51:04.942Z,9.18
2022-11-16T00:51:15.711Z,9.18
2022-11-16T00:51:26.462Z,9.18
2022-11-16T00:51:38.189Z,9.18
2022-11-16T00:51:48.932Z,9.18
2022-11-16T00:51:59.732Z,9.18
2022-11-16T00:52:10.494Z,9.18
2022-11-16T00:52:21.434Z,9.18
2022-11-16T00:52:32.196Z,9.18
2022-11-16T00:52:42.943Z,9.16
2022-11-16T00:52:53.734Z,9.16
2022-11-16T00:53:04.472Z,9.18
2022-11-16T00:53:16.142Z,9.18
2022-11-16T00:53:28.843Z,9.18
2022-11-16T00:53:39.624Z,9.18
2022-11-16T00:53:50.398Z,9.16
2022-11-16T00:54:02.176Z,9.16
2022-11-16T00:54:13.913Z,9.18
2022-11-16T00:54:24.702Z,9.16
2022-11-16T00:54:36.826Z,9.18
2022-11-16T00:54:47.624Z,9.18
2022-11-16T00:54:58.364Z,9.18
2022-11-16T00:55:09.153Z,9.15
2022-11-16T00:55:19.931Z,9.16
2022-11-16T00:55:33.135Z,9.18
2022-11-16T00:55:44.834Z,9.16
2022-11-16T00:55:57.271Z,9.18
2022-11-16T00:56:08.139Z,9.18
2022-11-16T00:56:20.566Z,9.18
2022-11-16T00:56:32.283Z,9.16
2022-11-16T00:56:43.973Z,9.16
2022-11-16T00:56:54.742Z,9.18
2022-11-16T00:57:05.483Z,9.16
2022-11-16T00:57:17.944Z,9.18
2022-11-16T00:57:29.644Z,9.16
2022-11-16T00:57:41.355Z,9.16
2022-11-16T00:57:53.553Z,9.16
2022-11-16T00:58:05.844Z,9.18
2022-11-16T00:58:16.616Z,9.16
2022-11-16T00:58:27.373Z,9.16
2022-11-16T00:58:38.162Z,9.18
2022-11-16T00:58:50.120Z,9.16
2022-11-16T00:59:00.903Z,9.16
2022-11-16T00:59:13.369Z,9.16
2022-11-16T00:59:24.125Z,9.15
2022-11-16T00:59:35.894Z,9.16
2022-11-16T00:59:46.643Z,9.18
2022-11-16T00:59:57.433Z,9.16
2022-11-16T01:00:09.197Z,9.16
2022-11-16T01:00:22.338Z,9.16
2022-11-16T01:00:33.148Z,9.15
2022-11-16T01:00:44.857Z,9.16
2022-11-16T01:00:56.678Z,9.16
2022-11-16T01:01:09.162Z,9.16
2022-11-16T01:01:21.014Z,9.16
2022-11-16T01:01:32.878Z,9.16
2022-11-16T01:01:44.717Z,9.16
2022-11-16T01:01:57.965Z,9.16
2022-11-16T01:02:10.194Z,9.15
2022-11-16T01:02:20.996Z,9.16
2022-11-16T01:02:33.017Z,9.16
2022-11-16T01:02:43.764Z,9.16
2022-11-16T01:02:55.605Z,9.16
2022-11-16T01:03:07.598Z,9.15
2022-11-16T01:03:18.485Z,9.16
2022-11-16T01:03:30.715Z,9.15
2022-11-16T01:03:43.938Z,9.15
2022-11-16T01:03:56.916Z,9.16
2022-11-16T01:04:07.709Z,9.15
2022-11-16T01:04:19.421Z,9.15
2022-11-16T01:04:31.136Z,9.16
2022-11-16T01:04:43.376Z,9.16
2022-11-16T01:04:55.885Z,9.16
2022-11-16T01:05:08.115Z,9.15
2022-11-16T01:05:18.918Z,9.15
2022-11-16T01:05:31.382Z,9.15
2022-11-16T01:05:42.157Z,9.16
2022-11-16T01:05:52.936Z,9.15
2022-11-16T01:06:05.653Z,9.15
2022-11-16T01:06:18.163Z,9.15
2022-11-16T01:06:29.875Z,9.15
2022-11-16T01:06:42.119Z,9.15
2022-11-16T01:06:52.922Z,9.15
2022-11-16T01:07:06.172Z,9.13
2022-11-16T01:07:18.647Z,9.15
2022-11-16T01:07:30.682Z,9.15
2022-11-16T01:07:41.470Z,9.15
2022-11-16T01:07:52.227Z,9.15
2022-11-16T01:08:02.979Z,9.13
2022-11-16T01:08:15.447Z,9.15
2022-11-16T01:08:26.229Z,9.13
2022-11-16T01:08:37.223Z,9.13
2022-11-16T01:08:48.967Z,9.13
2022-11-16T01:09:01.180Z,9.12
2022-11-16T01:09:13.990Z,9.13
2022-11-16T01:09:24.777Z,9.13
2022-11-16T01:09:35.807Z,9.13
2022-11-16T01:09:46.559Z,9.13
2022-11-16T01:09:57.327Z,9.13
2022-11-16T01:10:09.097Z,9.15
2022-11-16T01:10:19.915Z,9.13
2022-11-16T01:10:30.697Z,9.13
2022-11-16T01:10:41.477Z,9.15
2022-11-16T01:10:52.267Z,9.13
2022-11-16T01:11:03.088Z,9.13
2022-11-16T01:11:15.598Z,9.13
2022-11-16T01:11:26.368Z,9.13
2022-11-16T01:11:37.137Z,9.15
2022-11-16T01:11:47.927Z,9.13
2022-11-16T01:11:58.723Z,9.13
2022-11-16T01:12:10.953Z,9.15
2022-11-16T01:12:23.415Z,9.13
2022-11-16T01:12:34.157Z,9.13
2022-11-16T01:12:44.921Z,9.13
2022-11-16T01:12:55.647Z,9.13
2022-11-16T01:13:06.428Z,9.13
2022-11-16T01:13:17.198Z,9.12
2022-11-16T01:13:27.948Z,9.13
2022-11-16T01:13:38.718Z,9.13
2022-11-16T01:13:50.439Z,9.12
2022-11-16T01:14:01.197Z,9.12
2022-11-16T01:14:12.916Z,9.13
2022-11-16T01:14:24.668Z,9.12
2022-11-16T01:14:35.449Z,9.13
2022-11-16T01:14:46.200Z,9.12
2022-11-16T01:14:56.979Z,9.13
2022-11-16T01:15:08.739Z,9.12
2022-11-16T01:15:19.555Z,9.12
2022-11-16T01:15:30.289Z,9.12
2022-11-16T01:15:41.056Z,9.12
2022-11-16T01:15:52.808Z,9.12
2022-11-16T01:16:03.599Z,9.12
2022-11-16T01:16:14.369Z,9.12
2022-11-16T01:16:25.158Z,9.12
2022-11-16T01:16:35.922Z,9.13
2022-11-16T01:16:47.618Z,9.12
2022-11-16T01:16:59.858Z,9.12
2022-11-16T01:17:10.658Z,9.12
2022-11-16T01:17:22.369Z,9.10
2022-11-16T01:17:33.118Z,9.12
2022-11-16T01:17:43.887Z,9.10
2022-11-16T01:17:54.648Z,9.12
2022-11-16T01:18:05.420Z,9.10
2022-11-16T01:18:16.189Z,9.12
2022-11-16T01:18:27.003Z,9.10
2022-11-16T01:18:37.730Z,9.10
2022-11-16T01:18:49.499Z,9.12
2022-11-16T01:19:00.261Z,9.10
2022-11-16T01:19:11.981Z,9.10
2022-11-16T01:19:24.403Z,9.10
2022-11-16T01:19:35.161Z,9.12
2022-11-16T01:19:47.608Z,9.10
2022-11-16T01:19:58.418Z,9.10
2022-11-16T01:20:09.159Z,9.10
2022-11-16T01:20:21.842Z,9.12
2022-11-16T01:20:32.568Z,9.12
2022-11-16T01:20:43.291Z,9.10
2022-11-16T01:20:55.014Z,9.10
2022-11-16T01:21:05.842Z,9.09
2022-11-16T01:21:16.599Z,9.10
2022-11-16T01:21:27.370Z,9.10
2022-11-16T01:21:38.106Z,9.09
2022-11-16T01:21:49.771Z,9.10
2022-11-16T01:22:00.559Z,9.10
2022-11-16T01:22:12.789Z,9.10
2022-11-16T01:22:25.019Z,9.10
2022-11-16T01:22:36.699Z,9.10
2022-11-16T01:22:49.171Z,9.12
2022-11-16T01:23:00.908Z,9.10
2022-11-16T01:23:11.650Z,9.12
2022-11-16T01:23:23.380Z,9.12
2022-11-16T01:23:34.131Z,9.12
2022-11-16T01:23:44.880Z,9.12
2022-11-16T01:23:55.614Z,9.10
2022-11-16T01:24:08.530Z,9.10
2022-11-16T01:24:20.760Z,9.10
2022-11-16T01:24:33.232Z,9.10
2022-11-16T01:24:44.951Z,9.10
2022-11-16T01:24:57.687Z,9.10
2022-11-16T01:25:08.450Z,9.10
2022-11-16T01:25:20.948Z,9.12
2022-11-16T01:25:31.653Z,9.10
2022-11-16T01:25:42.442Z,9.10
2022-11-16T01:25:53.189Z,9.10
2022-11-16T01:26:04.922Z,9.10
2022-11-16T01:26:17.393Z,9.12
2022-11-16T01:26:29.125Z,9.10
2022-11-16T01:26:41.593Z,9.10
2022-11-16T01:26:53.694Z,9.10
2022-11-16T01:27:05.441Z,9.12
2022-11-16T01:27:17.871Z,9.12
2022-11-16T01:27:30.111Z,9.13
2022-11-16T01:27:40.881Z,9.12
2022-11-16T01:27:52.632Z,9.10
2022-11-16T01:28:03.433Z,9.10
2022-11-16T01:28:15.123Z,9.10
2022-11-16T01:28:25.881Z,9.10
2022-11-16T01:28:38.323Z,9.10
2022-11-16T01:28:49.081Z,9.10
2022-11-16T01:29:01.776Z,9.12
2022-11-16T01:29:12.530Z,9.10
2022-11-16T01:29:24.272Z,9.10
2022-11-16T01:29:36.972Z,9.10
2022-11-16T01:29:48.694Z,9.10
2022-11-16T01:29:59.481Z,9.10
2022-11-16T01:30:10.223Z,9.10
2022-11-16T01:30:21.973Z,9.10
2022-11-16T01:30:32.712Z,9.09
2022-11-16T01:30:44.921Z,9.10
2022-11-16T01:30:55.671Z,9.10
2022-11-16T01:31:06.451Z,9.10
2022-11-16T01:31:18.142Z,9.10
2022-11-16T01:31:28.894Z,9.10
2022-11-16T01:31:39.653Z,9.12
2022-11-16T01:31:50.679Z,9.10
2022-11-16T01:32:01.453Z,9.10
2022-11-16T01:32:12.181Z,9.09
2022-11-16T01:32:22.962Z,9.10
2022-11-16T01:32:33.720Z,9.10
2022-11-16T01:32:44.493Z,9.10
2022-11-16T01:32:55.323Z,9.10
2022-11-16T01:33:07.762Z,9.10
2022-11-16T01:33:20.215Z,9.09
2022-11-16T01:33:30.973Z,9.12
2022-11-16T01:33:41.743Z,9.10
2022-11-16T01:33:52.535Z,9.10
2022-11-16T01:34:03.323Z,9.10
2022-11-16T01:34:14.094Z,9.10
2022-11-16T01:34:25.815Z,9.09
2022-11-16T01:34:36.583Z,9.10
2022-11-16T01:34:47.327Z,9.09
2022-11-16T01:34:58.093Z,9.09
2022-11-16T01:35:08.854Z,9.09
2022-11-16T01:35:19.603Z,9.10
2022-11-16T01:35:30.372Z,9.09
2022-11-16T01:35:41.135Z,9.09
2022-11-16T01:35:53.825Z,9.10
2022-11-16T01:36:04.602Z,9.09
2022-11-16T01:36:15.336Z,9.06
2022-11-16T01:36:27.086Z,9.09
2022-11-16T01:36:37.844Z,9.09
2022-11-16T01:36:48.595Z,9.09
2022-11-16T01:37:00.338Z,9.06
2022-11-16T01:37:11.102Z,9.06
2022-11-16T01:37:21.865Z,9.09
2022-11-16T01:37:34.086Z,9.06
2022-11-16T01:37:44.852Z,9.09
2022-11-16T01:37:55.584Z,9.09
2022-11-16T01:38:07.277Z,9.06
2022-11-16T01:38:18.064Z,9.09
2022-11-16T01:38:30.081Z,9.06
2022-11-16T01:38:41.035Z,9.06
2022-11-16T01:38:51.769Z,9.06
2022-11-16T01:39:02.628Z,9.06
2022-11-16T01:39:13.352Z,9.05
2022-11-16T01:39:24.116Z,9.06
2022-11-16T01:39:34.855Z,9.09
2022-11-16T01:39:45.614Z,9.06
2022-11-16T01:39:57.335Z,9.06
2022-11-16T01:40:08.299Z,9.05
2022-11-16T01:40:19.044Z,9.06
2022-11-16T01:40:30.927Z,9.06
2022-11-16T01:40:41.694Z,9.06
2022-11-16T01:40:52.434Z,9.06
2022-11-16T01:41:04.875Z,9.06
2022-11-16T01:41:15.615Z,9.06
2022-11-16T01:41:26.397Z,9.05
2022-11-16T01:41:37.148Z,9.06
2022-11-16T01:41:49.755Z,9.06
2022-11-16T01:42:01.478Z,9.06
2022-11-16T01:42:12.254Z,9.05
2022-11-16T01:42:22.994Z,9.06
2022-11-16T01:42:34.687Z,9.06
2022-11-16T01:42:46.487Z,9.05
2022-11-16T01:42:58.194Z,9.06
2022-11-16T01:43:08.965Z,9.05
2022-11-16T01:43:21.425Z,9.05
2022-11-16T01:43:35.540Z,9.05
2022-11-16T01:43:47.991Z,9.05
2022-11-16T01:43:58.778Z,9.05
2022-11-16T01:44:12.005Z,9.05
2022-11-16T01:44:22.755Z,9.05
2022-11-16T01:44:34.474Z,9.04
2022-11-16T01:44:45.254Z,9.06
2022-11-16T01:44:57.457Z,9.05
2022-11-16T01:45:09.907Z,9.05
2022-11-16T01:45:20.674Z,9.05
2022-11-16T01:45:31.455Z,9.05
2022-11-16T01:45:42.186Z,9.05
2022-11-16T01:45:54.386Z,9.05
2022-11-16T01:46:06.096Z,9.06
2022-11-16T01:46:19.795Z,9.05
2022-11-16T01:46:32.279Z,9.05
2022-11-16T01:46:43.015Z,9.05
2022-11-16T01:46:53.825Z,9.05
2022-11-16T01:47:06.256Z,9.04
2022-11-16T01:47:18.709Z,9.05
2022-11-16T01:47:32.428Z,9.04
2022-11-16T01:47:44.626Z,9.05
2022-11-16T01:47:55.432Z,9.05
2022-11-16T01:48:08.682Z,9.05
2022-11-16T01:48:21.933Z,9.04
2022-11-16T01:48:33.239Z,9.05
2022-11-16T01:48:44.286Z,9.04
2022-11-16T01:48:56.988Z,9.05
2022-11-16T01:49:07.766Z,9.05
2022-11-16T01:49:20.476Z,9.04
2022-11-16T01:49:31.257Z,9.05
2022-11-16T01:49:44.489Z,9.04
2022-11-16T01:49:55.220Z,9.04
2022-11-16T01:50:07.764Z,9.05
2022-11-16T01:50:19.463Z,9.05
2022-11-16T01:50:31.242Z,9.04
2022-11-16T01:50:42.977Z,9.04
2022-11-16T01:50:55.480Z,9.02
2022-11-16T01:51:07.197Z,9.04
2022-11-16T01:51:18.930Z,9.02
2022-11-16T01:51:29.699Z,9.05
2022-11-16T01:51:40.500Z,9.04
2022-11-16T01:51:51.232Z,9.04
2022-11-16T01:52:02.040Z,9.02
2022-11-16T01:52:12.823Z,9.02
2022-11-16T01:52:23.587Z,9.02
2022-11-16T01:52:34.339Z,9.02
2022-11-16T01:52:46.591Z,9.01
2022-11-16T01:52:58.319Z,9.04
2022-11-16T01:53:09.115Z,9.04
2022-11-16T01:53:19.849Z,9.02
2022-11-16T01:53:31.548Z,9.05
2022-11-16T01:53:42.307Z,9.04
2022-11-16T01:53:53.071Z,9.04
2022-11-16T01:54:03.843Z,9.04
2022-11-16T01:54:15.649Z,9.02
2022-11-16T01:54:26.439Z,9.04
2022-11-16T01:54:38.178Z,9.02
2022-11-16T01:54:49.957Z,9.04
2022-11-16T01:55:00.757Z,9.04
2022-11-16T01:55:11.513Z,9.04
2022-11-16T01:55:23.227Z,9.04
2022-11-16T01:55:33.987Z,9.04
2022-11-16T01:55:44.762Z,9.02
2022-11-16T01:55:55.531Z,9.04
2022-11-16T01:56:07.272Z,9.02
2022-11-16T01:56:18.989Z,9.01
2022-11-16T01:56:29.787Z,9.04
2022-11-16T01:56:40.538Z,9.04
2022-11-16T01:56:52.260Z,9.04
2022-11-16T01:57:04.047Z,9.02
2022-11-16T01:57:15.759Z,9.04
2022-11-16T01:57:27.509Z,9.02
2022-11-16T01:57:38.300Z,9.04
2022-11-16T01:57:49.030Z,9.02
2022-11-16T01:57:59.789Z,9.02
2022-11-16T01:58:11.549Z,9.02
2022-11-16T01:58:22.337Z,9.02
2022-11-16T01:58:33.420Z,9.02
2022-11-16T01:58:44.328Z,9.04
2022-11-16T01:58:55.102Z,9.02
2022-11-16T01:59:05.889Z,9.04
2022-11-16T01:59:17.651Z,9.04
2022-11-16T01:59:28.422Z,9.04
2022-11-16T01:59:39.209Z,9.05
2022-11-16T01:59:51.428Z,9.02
2022-11-16T02:00:03.190Z,9.04
2022-11-16T02:00:13.979Z,9.04
2022-11-16T02:00:25.719Z,9.02
2022-11-16T02:00:36.539Z,9.02
2022-11-16T02:00:47.317Z,9.04
2022-11-16T02:00:58.135Z,9.04
2022-11-16T02:01:08.977Z,9.04
2022-11-16T02:01:19.812Z,9.02
2022-11-16T02:01:32.398Z,9.05
2022-11-16T02:01:44.192Z,9.05
2022-11-16T02:01:55.900Z,9.04
2022-11-16T02:02:06.658Z,9.04
2022-11-16T02:02:17.428Z,9.04
2022-11-16T02:02:29.160Z,9.04
2022-11-16T02:02:40.910Z,9.04
2022-11-16T02:02:51.687Z,9.05
2022-11-16T02:03:03.394Z,9.04
2022-11-16T02:03:15.100Z,9.04
2022-11-16T02:03:25.920Z,9.04
2022-11-16T02:03:36.661Z,9.05
2022-11-16T02:03:47.440Z,9.06
2022-11-16T02:04:00.132Z,9.04
2022-11-16T02:04:12.369Z,9.05
2022-11-16T02:04:24.078Z,9.04
2022-11-16T02:04:35.801Z,9.04
2022-11-16T02:04:46.581Z,9.04
2022-11-16T02:04:58.331Z,9.04
2022-11-16T02:05:09.091Z,9.04
2022-11-16T02:05:20.115Z,9.05
2022-11-16T02:05:30.907Z,9.04
2022-11-16T02:05:42.611Z,9.04
2022-11-16T02:05:54.341Z,9.06
2022-11-16T02:06:05.091Z,9.05
2022-11-16T02:06:15.836Z,9.04
2022-11-16T02:06:26.600Z,9.05
2022-11-16T02:06:37.371Z,9.04
2022-11-16T02:06:49.148Z,9.05
2022-11-16T02:07:00.904Z,9.05
2022-11-16T02:07:13.359Z,9.05
2022-11-16T02:07:25.839Z,9.05
2022-11-16T02:07:38.135Z,9.05
2022-11-16T02:07:51.324Z,9.04
2022-11-16T02:08:03.548Z,9.05
2022-11-16T02:08:14.312Z,9.05
2022-11-16T02:08:25.054Z,9.04
2022-11-16T02:08:36.785Z,9.05
2022-11-16T02:08:47.521Z,9.05
2022-11-16T02:09:00.213Z,9.05
2022-11-16T02:09:10.964Z,9.06
2022-11-16T02:09:22.691Z,9.04
2022-11-16T02:09:33.441Z,9.05
2022-11-16T02:09:45.902Z,9.05
2022-11-16T02:09:58.353Z,9.05
2022-11-16T02:10:11.350Z,9.04
2022-11-16T02:10:23.823Z,9.05
2022-11-16T02:10:34.571Z,9.04
2022-11-16T02:10:45.332Z,9.05
2022-11-16T02:10:57.090Z,9.04
2022-11-16T02:11:09.522Z,9.04
2022-11-16T02:11:21.251Z,9.05
2022-11-16T02:11:33.503Z,9.04
2022-11-16T02:11:45.672Z,9.05
2022-11-16T02:11:56.397Z,9.04
2022-11-16T02:12:09.592Z,9.04
2022-11-16T02:12:20.372Z,9.04
2022-11-16T02:12:32.812Z,9.05
2022-11-16T02:12:43.603Z,9.05
2022-11-16T02:12:56.012Z,9.05
2022-11-16T02:13:07.762Z,9.04
2022-11-16T02:13:19.962Z,9.04
2022-11-16T02:13:30.692Z,9.04
2022-11-16T02:13:41.414Z,9.04
2022-11-16T02:13:52.142Z,9.05
2022-11-16T02:14:02.911Z,9.05
2022-11-16T02:14:13.690Z,9.05
2022-11-16T02:14:24.472Z,9.05
2022-11-16T02:14:36.205Z,9.04
2022-11-16T02:14:46.951Z,9.04
2022-11-16T02:14:57.742Z,9.04
2022-11-16T02:15:09.503Z,9.04
2022-11-16T02:15:20.292Z,9.04
2022-11-16T02:15:31.343Z,9.05
2022-11-16T02:15:42.100Z,9.04
2022-11-16T02:15:54.292Z,9.04
2022-11-16T02:16:05.034Z,9.04
2022-11-16T02:16:15.782Z,9.05
2022-11-16T02:16:26.593Z,9.04
2022-11-16T02:16:37.371Z,9.02
2022-11-16T02:16:48.114Z,9.04
2022-11-16T02:16:58.873Z,9.04
2022-11-16T02:17:09.635Z,9.04
2022-11-16T02:17:20.498Z,9.05
2022-11-16T02:17:31.253Z,9.04
2022-11-16T02:17:43.193Z,9.04
2022-11-16T02:17:55.634Z,9.04
2022-11-16T02:18:06.408Z,9.04
2022-11-16T02:18:17.195Z,9.04
2022-11-16T02:18:27.994Z,9.04
2022-11-16T02:18:40.206Z,9.04
2022-11-16T02:18:52.403Z,9.04
2022-11-16T02:19:03.195Z,9.05
2022-11-16T02:19:13.991Z,9.05
2022-11-16T02:19:24.753Z,9.05
2022-11-16T02:19:35.504Z,9.04
2022-11-16T02:19:46.287Z,9.04
2022-11-16T02:19:57.066Z,9.04
2022-11-16T02:20:07.833Z,9.04
2022-11-16T02:20:20.273Z,9.02
2022-11-16T02:20:31.404Z,9.04
2022-11-16T02:20:42.323Z,9.02
2022-11-16T02:20:53.146Z,9.04
2022-11-16T02:21:03.888Z,9.02
2022-11-16T02:21:14.682Z,9.04
2022-11-16T02:21:26.795Z,9.02
2022-11-16T02:21:38.754Z,9.02
2022-11-16T02:21:49.546Z,9.04
2022-11-16T02:22:00.334Z,9.04
2022-11-16T02:22:11.354Z,9.02
2022-11-16T02:22:23.061Z,9.02
2022-11-16T02:22:34.806Z,9.02
2022-11-16T02:22:45.544Z,9.02
2022-11-16T02:22:57.304Z,9.01
2022-11-16T02:23:08.044Z,9.02
2022-11-16T02:23:18.822Z,9.01
2022-11-16T02:23:30.556Z,9.02
2022-11-16T02:23:42.278Z,9.02
2022-11-16T02:23:53.035Z,9.02
2022-11-16T02:24:06.006Z,9.01
2022-11-16T02:24:18.452Z,9.02
2022-11-16T02:24:30.165Z,9.01
2022-11-16T02:24:40.932Z,9.01
2022-11-16T02:24:52.647Z,9.02
2022-11-16T02:25:05.105Z,9.02
2022-11-16T02:25:16.825Z,9.01
2022-11-16T02:25:30.041Z,9.01
2022-11-16T02:25:40.805Z,9.02
2022-11-16T02:25:53.239Z,9.02
2022-11-16T02:26:06.956Z,9.01
2022-11-16T02:26:18.695Z,9.01
2022-11-16T02:26:29.464Z,9.02
2022-11-16T02:26:40.215Z,9.01
2022-11-16T02:26:52.166Z,9.01
2022-11-16T02:27:04.598Z,8.99
2022-11-16T02:27:15.337Z,9.02
2022-11-16T02:27:26.065Z,9.01
2022-11-16T02:27:36.807Z,9.02
2022-11-16T02:27:49.234Z,9.01
2022-11-16T02:27:59.975Z,9.02
2022-11-16T02:28:10.746Z,9.01
2022-11-16T02:28:23.186Z,8.99
2022-11-16T02:28:34.402Z,9.01
2022-11-16T02:28:48.284Z,9.02
2022-11-16T02:29:02.489Z,9.01
2022-11-16T02:29:14.241Z,9.01
2022-11-16T02:29:24.988Z,9.01
2022-11-16T02:29:35.747Z,9.01
2022-11-16T02:29:48.176Z,9.01
2022-11-16T02:29:58.920Z,9.01
2022-11-16T02:30:10.628Z,9.02
2022-11-16T02:30:21.389Z,9.01
2022-11-16T02:30:33.109Z,9.01
2022-11-16T02:30:45.108Z,9.01
2022-11-16T02:30:57.584Z,8.99
2022-11-16T02:31:09.296Z,9.01
2022-11-16T02:31:21.047Z,9.01
2022-11-16T02:31:33.525Z,9.01
2022-11-16T02:31:44.275Z,9.01
2022-11-16T02:31:55.966Z,8.99
2022-11-16T02:32:07.760Z,9.02
2022-11-16T02:32:18.517Z,9.01